Metar Cercanos

 

LEPA - Palma De Mallorc, Spain
Distance from station: ONO 38km
Actualización: Sat, 28-Nov-2020 8:00pm CET
Few Clouds
Few Clouds
 Viento del NE
Viento: NE 9 km/h
Temperatura: 16°C
Rocío: 12°C
Humedad: 77%
Barómetro: 1004 hPa
Clouds: Few Clouds
Visibility: 10 km
Cloud details: Few Clouds 762 m
2020/11/28 19:00 LEPA 281900Z 05005KT 9999 FEW025 16/12 Q1004 NOSIG
LEMH - Mahon/Menorca Is, Spain
Distance from station: ENE 105km
Actualización: Sat, 28-Nov-2020 8:00pm CET
Parcialmente nuboso
Parcialmente nuboso
 Viento del NNE
Viento: NNE 15 km/h
Temperatura: 14°C
Rocío: 11°C
Humedad: 82%
Barómetro: 1003 hPa
Clouds: Parcialmente nuboso
Visibility: 10 km
Cloud details: Few Clouds 549 m
Parcialmente nuboso 762 m
2020/11/28 19:00 LEMH 281900Z 03008KT 9999 FEW018 SCT025 14/11 Q1003
 
LEIB - Ibiza/Es Codola, Spain
Distance from station: OSO 165km
Actualización: Sat, 28-Nov-2020 8:00pm CET
Few Clouds
Few Clouds
 Viento del NNO
Viento: NNO 22 km/h
Temperatura: 16°C
Rocío: 14°C
Humedad: 88%
Barómetro: 1005 hPa
Clouds: Few Clouds
Visibility: 10 km
Cloud details: Few Clouds 427 m
Few Clouds 610 m
2020/11/28 19:00 LEIB 281900Z 33012KT 300V360 9999 FEW014 FEW020TCU 16/14 Q1005 NOSIG
LEBL - Barcelona Airpor, Spain
Distance from station: NNO 225km
Actualización: Sat, 28-Nov-2020 8:00pm CET
Muy nuboso
Muy nuboso
 Viento del NE
Viento: NE 26 km/h
Temperatura: 15°C
Rocío: 12°C
Humedad: 82%
Barómetro: 1008 hPa
Clouds: Muy nuboso
Visibility: 10 km
Cloud details: Muy nuboso 671 m
2020/11/28 19:00 LEBL 281900Z 04014KT 010V070 9999 BKN022 15/12 Q1008 NOSIG
 
LEVC - Valencia (civ/Mi, Spain
Distance from station: NO 188km
Actualización: Sat, 28-Nov-2020 8:00pm CET
Parcialmente nuboso
Parcialmente nuboso
 Viento del O
Viento: O 4 km/h
Temperatura: 13°C
Rocío: 10°C
Humedad: 82%
Barómetro: 1008 hPa
Clouds: Parcialmente nuboso
Visibility: 10 km
Cloud details: Few Clouds 762 m
Parcialmente nuboso 1524 m
2020/11/28 19:00 LEVC 281900Z 28002KT 9999 FEW025 SCT050 13/10 Q1008 NOSIG
LEGE - Gerona/Costa Bra, Spain
Distance from station: N 276km
Actualización: Sat, 28-Nov-2020 8:00pm CET
Cubierto
Cubierto
 Viento del NE
Viento: NE 20 km/h
Temperatura: 13°C
Rocío: 11°C
Humedad: 88%
Barómetro: 1009 hPa
Clouds: Cubierto
Visibility: 10 km
Cloud details: Cubierto 427 m
2020/11/28 19:00 LEGE 281900Z 04011KT 010V080 9999 OVC014 13/11 Q1009
 
LEAL - Alicante/El Alte, Spain
Distance from station: OSO 344km
Actualización: Sat, 28-Nov-2020 8:00pm CET
Despejado
Despejado
 Viento del ONO
Viento: ONO 28 km/h, Racha: 46 km/h
Temperatura: 15°C
Rocío: 7°C
Humedad: 59%
Barómetro: 1008 hPa
Resumen: Despejado
Visibility: greater than 10 km
2020/11/28 19:00 LEAL 281900Z 30015G25KT 270V340 CAVOK 15/07 Q1008 NOSIG
LEAM - Almeria Airport, Spain
Distance from station: SSO 56km
Actualización: Sat, 28-Nov-2020 8:00pm CET
Despejado
Despejado
 Viento del N
Viento: N 13 km/h
Temperatura: 16°C
Rocío: 6°C
Humedad: 52%
Barómetro: 1009 hPa
Resumen: Despejado
Visibility: greater than 10 km
2020/11/28 19:00 LEAM 281900Z 01007KT CAVOK 16/06 Q1009
 
LEZG - Zaragoza (mil/Ci, Spain
Distance from station: NO 431km
Actualización: Sat, 28-Nov-2020 8:00pm CET
Muy nuboso
Muy nuboso
 Viento del SSE
Viento: SSE 2 km/h
Temperatura: 12°C
Rocío: 9°C
Humedad: 82%
Barómetro: 1010 hPa
Clouds: Muy nuboso
Visibility: 10 km
Cloud details: Muy nuboso 1067 m
2020/11/28 19:00 LEZG 281900Z 15001KT 9999 BKN035 12/09 Q1010
LEMD - Madrid/Barajas, Spain
Distance from station: ONO 234km
Actualización: Sat, 28-Nov-2020 8:00pm CET
Parcialmente nuboso
Parcialmente nuboso
 Viento del varies
Viento: varies 4 km/h
Temperatura: 6°C
Rocío: 6°C
Humedad: 100%
Barómetro: 1010 hPa
Clouds: Parcialmente nuboso
Visibility: 7 km
Cloud details: Few Clouds 610 m
Parcialmente nuboso 1981 m
2020/11/28 19:00 LEMD 281900Z VRB02KT 7000 FEW020 SCT065 06/06 Q1010 NOSIG
 
LEGR - Granada Airport, Spain
Distance from station: OSO 62km
Actualización: Sat, 28-Nov-2020 8:00pm CET
Parcialmente nuboso
Parcialmente nuboso
 Viento del SSO
Viento: SSO 2 km/h
Temperatura: 8°C
Rocío: 7°C
Humedad: 93%
Barómetro: 1011 hPa
Clouds: Parcialmente nuboso
Visibility: 10 km
Cloud details: Few Clouds 914 m
Parcialmente nuboso 1219 m
2020/11/28 19:00 LEGR 281900Z 20001KT 9999 FEW030 SCT040 08/07 Q1011
LEMG - Malaga (civ/Mil), Spain
Distance from station: OSO 227km
Actualización: Sat, 28-Nov-2020 8:00pm CET
Parcialmente nuboso
Parcialmente nuboso
 Viento del O
Viento: O 6 km/h
Temperatura: 14°C
Rocío: 12°C
Humedad: 88%
Barómetro: 1010 hPa
Clouds: Parcialmente nuboso
Visibility: 10 km
Cloud details: Few Clouds 1524 m
Parcialmente nuboso 2591 m
2020/11/28 19:00 LEMG 281900Z 27003KT 240V310 9999 FEW050 SCT085 14/12 Q1010 NOSIG
 
LEZL - Sevilla (civ/Mil, Spain
Distance from station: S 318km
Actualización: Sat, 28-Nov-2020 8:00pm CET
Parcialmente nuboso
Parcialmente nuboso
 Viento del SE
Viento: SE 6 km/h
Temperatura: 14°C
Rocío: 12°C
Humedad: 88%
Barómetro: 1010 hPa
Clouds: Parcialmente nuboso
Visibility: 10 km
Cloud details: Few Clouds 853 m
Parcialmente nuboso 1219 m
2020/11/28 19:00 LEZL 281900Z 13003KT 080V160 9999 FEW028 SCT040 14/12 Q1010 NOSIG
LEVT - Vitoria, Spain
Distance from station: NO 226km
Actualización: Sat, 28-Nov-2020 8:00pm CET
Despejado
Despejado
 Viento del NNE
Viento: NNE 6 km/h
Temperatura: 8°C
Rocío: 5°C
Humedad: 82%
Barómetro: 1009 hPa
Resumen: Despejado
Visibility: greater than 10 km
2020/11/28 19:00 LEVT 281900Z 02003KT 310V050 CAVOK 08/05 Q1009
 
LEBB - Bilbao/Sondica, Spain
Distance from station: NNO 235km
Actualización: Sat, 28-Nov-2020 8:00pm CET
Despejado
Despejado
 Viento del E
Viento: E 7 km/h
Temperatura: 13°C
Rocío: 9°C
Humedad: 77%
Barómetro: 1008 hPa
Resumen: Despejado
Visibility: greater than 10 km
2020/11/28 19:00 LEBB 281900Z 09004KT 050V130 CAVOK 13/09 Q1008 NOSIG
LESO - San Sebastian/Fu, Spain
Distance from station: N 231km
Actualización: Sat, 28-Nov-2020 8:00pm CET
Despejado
Despejado
 Viento del varies
Viento: varies 2 km/h
Temperatura: 11°C
Rocío: 9°C
Humedad: 88%
Barómetro: 1009 hPa
Resumen: Despejado
Visibility: greater than 10 km
2020/11/28 19:00 LESO 281900Z VRB01KT CAVOK 11/09 Q1009
 
LEVD - Valladolid(Mil/C, Spain
Distance from station: ONO 239km
Actualización: Sat, 28-Nov-2020 8:00pm CET
Mist, Patches of, Niebla, Parcialmente nuboso
Mist, Patches of, Niebla, Parcialmente nuboso
 Viento del SSO
Viento: SSO 6 km/h
Temperatura: 5°C
Rocío: 5°C
Humedad: 100%
Barómetro: 1009 hPa
Resumen: Mist, Patches of, Niebla
Clouds: Parcialmente nuboso
Visibility: 3 km
Cloud details: Parcialmente nuboso 30 m
Parcialmente nuboso 1341 m
2020/11/28 19:00 LEVD 281900Z 21003KT 170V230 3000 BR BCFG SCT001 SCT044 05/05 Q1009
LESA - Salamanca (civ/M, Spain
Distance from station: ONO 349km
Actualización: Sat, 28-Nov-2020 8:00pm CET
Muy nuboso
Muy nuboso
 Viento del varies
Viento: varies 2 km/h
Temperatura: 8°C
Rocío: 6°C
Humedad: 87%
Barómetro: 1008 hPa
Clouds: Muy nuboso
Visibility: 10 km
Cloud details: Muy nuboso 1494 m
2020/11/28 19:00 LESA 281900Z AUTO VRB01KT 9999 BKN049 08/06 Q1008
 
LEXJ - Santander/Paraya, Spain
Distance from station: NNO 247km
Actualización: Sat, 28-Nov-2020 8:00pm CET
Despejado
Despejado
 Viento del ESE
Viento: ESE 6 km/h
Temperatura: 12°C
Rocío: 10°C
Humedad: 88%
Barómetro: 1007 hPa
Resumen: Despejado
Visibility: greater than 10 km
2020/11/28 19:00 LEXJ 281900Z 12003KT 090V160 CAVOK 12/10 Q1007
LEAS - Asturias/Aviles, Spain
Distance from station: NO 214km
Actualización: Sat, 28-Nov-2020 8:00pm CET
Few Clouds
Few Clouds
 Viento del OSO
Viento: OSO 6 km/h
Temperatura: 11°C
Rocío: 9°C
Humedad: 88%
Barómetro: 1006 hPa
Clouds: Few Clouds
Visibility: 10 km
Cloud details: Few Clouds 2286 m
2020/11/28 19:00 LEAS 281900Z 25003KT 9999 FEW075 11/09 Q1006 NOSIG
 
LECO - La Coruna/Alvedr, Spain
Distance from station: ONO 222km
Actualización: Sat, 28-Nov-2020 8:00pm CET
Despejado
Despejado
 Viento del S
Viento: S 7 km/h
Temperatura: 11°C
Rocío: 10°C
Humedad: 94%
Barómetro: 1005 hPa
Resumen: Despejado
Visibility: greater than 10 km
2020/11/28 19:00 LECO 281900Z 18004KT CAVOK 11/10 Q1005 NOSIG
LEVX - Vigo/Peinador, Spain
Distance from station: O 214km
Actualización: Sat, 28-Nov-2020 8:00pm CET
Muy nuboso
Muy nuboso
 Viento del SSO
Viento: SSO 6 km/h
Temperatura: 11°C
Rocío: 10°C
Humedad: 94%
Barómetro: 1004 hPa
Clouds: Muy nuboso
Visibility: 10 km
Cloud details: Muy nuboso 1219 m
2020/11/28 19:00 LEVX 281900Z 21003KT 170V260 9999 BKN040 11/10 Q1004 NOSIG